Naples, FL (34101)

8:28 PM EDT on August 27, 2016 (GMT -0400)
Flamingo Estates | | Change Station

Elev 23 ft 26.14 °N, 81.75 °W | Updated 24 seconds ago

Partly Cloudy
Partly Cloudy
77.4 °F
Feels Like 79 °F
N
2.7
Wind Variable Wind from WNW

Today
High -- | Low -- °F
--% Chance of Precip.
Yesterday
High -- | Low -- °F
Precip. -- in
Pressure 29.90 in
Visibility 10.0 miles
Clouds Few 4500 ft
Heat Index 79 °F
Dew Point 74 °F
Humidity 90%
Rainfall 1.86 in
Snow Depth Not available.
7:05 AM 7:51 PM
Waning Crescent, 20% visible
METAR KAPF 272353Z 36005KT 10SM FEW045 27/25 A2990 RMK AO2 SLP123 60076 T02720250 10339 20250 50001
Pressure 29.90 in
Visibility 10.0 miles
Clouds Few 4500 ft
Heat Index 79 °F
Dew Point 74 °F
Humidity 90%
Rainfall 1.86 in
Snow Depth Not available.
7:05 AM 7:51 PM
Waning Crescent, 20% visible
METAR KAPF 272353Z 36005KT 10SM FEW045 27/25 A2990 RMK AO2 SLP123 60076 T02720250 10339 20250 50001

10-Day Weather Forecast

Almanac

Astronomy

Aug. 27, 2016 Rise Set
Actual Time
Civil Twilight
Nautical Twilight
Astronomical Twilight
Moon
Length of Visible Light
Length of Day
Tomorrow will be .
, % of the Moon is Illuminated

Today's Extremes

State Highs State Lows

Community

WunderPhotos

Upload Photos

1,935,472 photos uploaded!

WunderBlog® & News

Nearby

Air Quality

  Air Quality AQ Index Pollutant
Not available.

Snow Depth

Station Depth Elevation

Earthquake Activity

City Distance Mag. Time & Date
Minimum magnitude displayed is 2.5.

Coastal Water Temperatures

Place Temperature

Stations

Nearby Weather Stations

Station Location Temp. Windchill Dew Point Humidity Wind Precip. Elev Updated Type
                   

Watches & Warnings

There are currently no watches in effect.